Time;durP1;ratioP1;P1;durP2;ratioP2;P2;SDS_P1;SDS_P2;PMS_P1;PMS_P2;Temp;Humidity;BMP_temperature;BMP_pressure;BME280_temperature;BME280_humidity;BME280_pressure;Samples;Min_cycle;Max_cycle;Signal;HPM_P1;HPM_P2
2023/07/06 00:02:14;;;;;;;3.00;1.40;;;;;;;;;;5013471;28;20447;-51
2023/07/06 00:04:41;;;;;;;2.67;1.40;;;;;;;;;;5013565;28;20475;-52
2023/07/06 00:07:10;;;;;;;2.70;1.00;;;;;;;;;;5013036;28;21045;-52
2023/07/06 00:09:38;;;;;;;2.60;1.50;;;;;;;;;;5013701;28;20447;-51
2023/07/06 00:12:05;;;;;;;3.10;1.80;;;;;;;;;;5012994;28;21034;-50
2023/07/06 00:14:33;;;;;;;3.53;2.10;;;;;;;;;;5013545;28;20542;-52
2023/07/06 00:17:11;;;;;;;2.67;1.40;;;;;;;;;;5013296;28;20566;-50
2023/07/06 00:19:38;;;;;;;2.70;1.40;;;;;;;;;;5013233;28;20449;-51
2023/07/06 00:22:05;;;;;;;3.60;1.77;;;;;;;;;;5012914;28;20486;-52
2023/07/06 00:24:34;;;;;;;2.80;1.20;;;;;;;;;;5012883;28;20487;-51
2023/07/06 00:27:01;;;;;;;2.80;1.50;;;;;;;;;;5012387;28;20537;-51
2023/07/06 00:29:33;;;;;;;2.70;1.40;;;;;;;;;;5012568;28;20530;-51
2023/07/06 00:32:15;;;;;;;2.47;1.43;;;;;;;;;;5012713;28;20510;-51
2023/07/06 00:34:43;;;;;;;2.73;1.53;;;;;;;;;;5012838;28;20450;-52
2023/07/06 00:37:12;;;;;;;2.40;1.30;;;;;;;;;;5013124;28;20463;-51
2023/07/06 00:39:40;;;;;;;3.10;1.63;;;;;;;;;;5013108;28;20448;-51
2023/07/06 00:42:15;;;;;;;2.93;1.40;;;;;;;;;;5012705;28;20530;-52
2023/07/06 00:44:48;;;;;;;3.47;1.23;;;;;;;;;;5012590;28;20493;-51
2023/07/06 00:47:15;;;;;;;2.80;1.70;;;;;;;;;;5012401;28;20471;-51
2023/07/06 00:49:43;;;;;;;2.80;1.40;;;;;;;;;;5012662;28;20883;-52
2023/07/06 00:52:11;;;;;;;2.93;1.60;;;;;;;;;;5012525;28;20530;-52
2023/07/06 00:54:42;;;;;;;2.80;1.53;;;;;;;;;;5012499;28;20458;-52
2023/07/06 00:57:12;;;;;;;4.13;1.40;;;;;;;;;;5012685;28;20532;-51
2023/07/06 00:59:40;;;;;;;2.73;1.67;;;;;;;;;;5012679;28;20860;-50
2023/07/06 01:02:10;;;;;;;3.00;1.60;;;;;;;;;;5012234;28;20509;-52
2023/07/06 01:04:37;;;;;;;2.70;1.60;;;;;;;;;;5012508;28;20486;-51
2023/07/06 01:07:04;;;;;;;3.00;1.60;;;;;;;;;;5012030;28;20467;-51
2023/07/06 01:09:32;;;;;;;3.77;1.80;;;;;;;;;;5012432;28;20558;-52
2023/07/06 01:12:02;;;;;;;2.73;1.37;;;;;;;;;;5012198;28;20505;-50
2023/07/06 01:14:32;;;;;;;4.47;1.30;;;;;;;;;;5012341;28;21003;-50
2023/07/06 01:17:05;;;;;;;2.60;1.40;;;;;;;;;;5012287;28;20471;-50
2023/07/06 01:19:46;;;;;;;2.20;1.37;;;;;;;;;;5012267;28;20447;-51
2023/07/06 01:22:22;;;;;;;2.73;1.27;;;;;;;;;;5012048;28;20538;-50
2023/07/06 01:24:57;;;;;;;2.80;1.20;;;;;;;;;;5012069;28;20453;-50
2023/07/06 01:27:38;;;;;;;3.47;1.60;;;;;;;;;;5011764;28;20990;-51
2023/07/06 01:30:33;;;;;;;3.37;1.63;;;;;;;;;;5011538;28;20454;-52
2023/07/06 01:33:04;;;;;;;3.07;1.40;;;;;;;;;;4953907;28;20525;-52
2023/07/06 01:35:36;;;;;;;2.43;1.30;;;;;;;;;;5011013;28;20522;-51
2023/07/06 01:38:03;;;;;;;2.77;1.50;;;;;;;;;;5010734;28;20497;-52
2023/07/06 01:40:30;;;;;;;3.20;1.40;;;;;;;;;;5011291;28;20551;-50
2023/07/06 01:42:59;;;;;;;2.80;1.70;;;;;;;;;;5010872;28;20927;-50
2023/07/06 01:45:28;;;;;;;3.77;1.37;;;;;;;;;;5011169;28;20446;-50
2023/07/06 01:47:57;;;;;;;2.60;1.30;;;;;;;;;;5010351;28;20479;-51
2023/07/06 01:50:31;;;;;;;2.67;1.47;;;;;;;;;;5011027;28;20670;-50
2023/07/06 01:53:07;;;;;;;2.80;2.03;;;;;;;;;;5011056;28;20496;-50
2023/07/06 01:55:37;;;;;;;2.67;1.50;;;;;;;;;;5010976;28;20446;-51
2023/07/06 01:58:09;;;;;;;2.60;1.33;;;;;;;;;;5010941;28;20491;-50
2023/07/06 02:00:38;;;;;;;2.53;1.47;;;;;;;;;;5010808;28;20475;-50
2023/07/06 02:03:06;;;;;;;3.03;1.60;;;;;;;;;;5010596;28;20530;-51
2023/07/06 02:05:36;;;;;;;3.37;1.70;;;;;;;;;;5010792;28;20470;-50
2023/07/06 02:08:04;;;;;;;3.83;1.50;;;;;;;;;;5010711;28;20510;-50
2023/07/06 02:10:31;;;;;;;4.83;2.20;;;;;;;;;;5010844;28;20439;-51
2023/07/06 02:12:58;;;;;;;2.77;1.33;;;;;;;;;;5010423;28;20677;-50
2023/07/06 02:15:27;;;;;;;3.63;1.70;;;;;;;;;;5010667;28;20554;-52
2023/07/06 02:17:55;;;;;;;2.67;1.43;;;;;;;;;;5010710;28;20463;-52
2023/07/06 02:20:22;;;;;;;4.10;1.57;;;;;;;;;;5010695;28;20451;-51
2023/07/06 02:22:51;;;;;;;2.87;1.10;;;;;;;;;;5010333;28;20875;-51
2023/07/06 02:25:20;;;;;;;3.50;1.80;;;;;;;;;;5010777;28;20894;-51
2023/07/06 02:27:47;;;;;;;3.07;1.60;;;;;;;;;;4970553;28;1161411;-50
2023/07/06 02:30:15;;;;;;;3.10;1.33;;;;;;;;;;5011262;28;20246;-51
2023/07/06 02:32:42;;;;;;;3.10;1.70;;;;;;;;;;5011011;28;20527;-51
2023/07/06 02:35:10;;;;;;;4.30;1.97;;;;;;;;;;5011431;28;20482;-50
2023/07/06 02:37:38;;;;;;;2.73;1.37;;;;;;;;;;5011195;28;20489;-50
2023/07/06 02:40:08;;;;;;;6.43;1.70;;;;;;;;;;5011253;28;20501;-50
2023/07/06 02:42:35;;;;;;;2.50;1.40;;;;;;;;;;5010740;28;20955;-50
2023/07/06 02:45:04;;;;;;;2.00;1.20;;;;;;;;;;5011125;28;20522;-50
2023/07/06 02:47:31;;;;;;;2.50;1.60;;;;;;;;;;5010776;28;20470;-52
2023/07/06 02:49:58;;;;;;;4.90;2.17;;;;;;;;;;5011184;28;21022;-52
2023/07/06 02:52:26;;;;;;;3.00;1.67;;;;;;;;;;5013978;28;20439;-51
2023/07/06 02:54:53;;;;;;;2.67;1.50;;;;;;;;;;5014749;28;20561;-51
2023/07/06 02:57:22;;;;;;;2.60;1.60;;;;;;;;;;5014786;28;20574;-52
2023/07/06 02:59:51;;;;;;;2.47;1.43;;;;;;;;;;5015081;28;20530;-52
2023/07/06 03:02:18;;;;;;;3.17;1.70;;;;;;;;;;5014702;28;20936;-50
2023/07/06 03:04:46;;;;;;;4.90;1.87;;;;;;;;;;5014851;28;20454;-52
2023/07/06 03:07:13;;;;;;;2.80;1.40;;;;;;;;;;5014470;28;20561;-51
2023/07/06 03:09:42;;;;;;;2.93;1.43;;;;;;;;;;5014451;28;20484;-50
2023/07/06 03:12:10;;;;;;;4.00;1.73;;;;;;;;;;5014227;28;20935;-51
2023/07/06 03:14:39;;;;;;;3.10;1.80;;;;;;;;;;5014499;28;20518;-51
2023/07/06 03:17:06;;;;;;;3.03;1.67;;;;;;;;;;5014483;28;20562;-51
2023/07/06 03:19:38;;;;;;;2.40;1.50;;;;;;;;;;5014399;28;20493;-52
2023/07/06 03:22:06;;;;;;;4.20;2.30;;;;;;;;;;5014447;28;20453;-51
2023/07/06 03:24:33;;;;;;;2.77;1.50;;;;;;;;;;5014424;28;20486;-51
2023/07/06 03:27:02;;;;;;;3.60;1.60;;;;;;;;;;5014077;28;20474;-51
2023/07/06 03:29:30;;;;;;;3.00;1.50;;;;;;;;;;5014278;28;20482;-51
2023/07/06 03:32:00;;;;;;;2.50;1.30;;;;;;;;;;5013868;28;20447;-50
2023/07/06 03:34:28;;;;;;;2.97;1.50;;;;;;;;;;5013966;28;20470;-50
2023/07/06 03:36:55;;;;;;;5.50;1.97;;;;;;;;;;5014165;28;20478;-51
2023/07/06 03:39:22;;;;;;;3.30;1.50;;;;;;;;;;5014342;28;20530;-53
2023/07/06 03:41:50;;;;;;;3.53;1.73;;;;;;;;;;5013920;28;20451;-50
2023/07/06 03:44:17;;;;;;;3.33;1.70;;;;;;;;;;5013902;28;21010;-52
2023/07/06 03:46:44;;;;;;;2.80;1.60;;;;;;;;;;5013237;28;20550;-51
2023/07/06 03:49:13;;;;;;;3.83;1.83;;;;;;;;;;5013836;28;20562;-51
2023/07/06 03:51:45;;;;;;;2.93;1.50;;;;;;;;;;5013639;28;20527;-51
2023/07/06 03:54:13;;;;;;;3.20;1.83;;;;;;;;;;5013730;28;20543;-52
2023/07/06 03:56:40;;;;;;;3.17;1.70;;;;;;;;;;5013765;28;20521;-51
2023/07/06 03:59:07;;;;;;;2.50;1.60;;;;;;;;;;5013901;28;20526;-52
2023/07/06 04:01:36;;;;;;;3.07;1.87;;;;;;;;;;5013160;28;20493;-51
2023/07/06 04:04:06;;;;;;;2.63;1.67;;;;;;;;;;5013005;28;20795;-52
2023/07/06 04:06:40;;;;;;;2.40;1.40;;;;;;;;;;5013507;28;20462;-50
2023/07/06 04:09:09;;;;;;;3.47;1.97;;;;;;;;;;5013201;28;21024;-50
2023/07/06 04:11:36;;;;;;;3.20;1.87;;;;;;;;;;5013376;28;20443;-51
2023/07/06 04:14:03;;;;;;;2.30;1.20;;;;;;;;;;5019467;28;20443;-50
2023/07/06 04:16:31;;;;;;;2.67;1.57;;;;;;;;;;5033195;28;20462;-50
2023/07/06 04:18:58;;;;;;;4.13;1.40;;;;;;;;;;5033092;28;20774;-50
2023/07/06 04:21:26;;;;;;;2.70;1.73;;;;;;;;;;5032565;28;20455;-51
2023/07/06 04:23:54;;;;;;;2.93;1.77;;;;;;;;;;5033477;28;20512;-51
2023/07/06 04:26:22;;;;;;;2.70;1.70;;;;;;;;;;5032844;28;20912;-50
2023/07/06 04:28:50;;;;;;;3.00;1.83;;;;;;;;;;5032824;28;20486;-50
2023/07/06 04:31:17;;;;;;;3.00;1.80;;;;;;;;;;5032747;28;20540;-52
2023/07/06 04:33:45;;;;;;;2.83;1.63;;;;;;;;;;5032614;28;20525;-51
2023/07/06 04:36:13;;;;;;;2.67;1.30;;;;;;;;;;5022469;28;20463;-50
2023/07/06 04:38:40;;;;;;;3.83;1.70;;;;;;;;;;5012519;28;20515;-50
2023/07/06 04:41:09;;;;;;;3.27;1.77;;;;;;;;;;5012415;28;20978;-50
2023/07/06 04:43:36;;;;;;;3.13;1.70;;;;;;;;;;5012284;28;20979;-51
2023/07/06 04:46:04;;;;;;;2.90;1.60;;;;;;;;;;5011784;28;20535;-51
2023/07/06 04:48:33;;;;;;;3.60;2.20;;;;;;;;;;5012339;28;20916;-52
2023/07/06 04:51:01;;;;;;;3.47;1.83;;;;;;;;;;5012782;28;20483;-51
2023/07/06 04:53:32;;;;;;;2.90;1.60;;;;;;;;;;5009294;28;20497;-50
2023/07/06 04:56:00;;;;;;;2.50;1.53;;;;;;;;;;5012215;28;20444;-52
2023/07/06 04:58:29;;;;;;;4.43;1.57;;;;;;;;;;5012246;28;20822;-50
2023/07/06 05:00:57;;;;;;;4.30;1.80;;;;;;;;;;5012354;28;20534;-51
2023/07/06 05:03:24;;;;;;;3.17;1.93;;;;;;;;;;5012539;28;20486;-50
2023/07/06 05:05:51;;;;;;;3.23;1.73;;;;;;;;;;5011868;28;20475;-51
2023/07/06 05:08:21;;;;;;;3.57;2.10;;;;;;;;;;5012450;28;20534;-52
2023/07/06 05:10:50;;;;;;;3.50;1.87;;;;;;;;;;5010074;28;20554;-52
2023/07/06 05:13:18;;;;;;;3.43;1.90;;;;;;;;;;5011806;28;20444;-52
2023/07/06 05:15:47;;;;;;;3.20;1.50;;;;;;;;;;5012021;28;20509;-52
2023/07/06 05:18:14;;;;;;;3.73;1.90;;;;;;;;;;5011568;28;20518;-50
2023/07/06 05:20:42;;;;;;;3.07;1.83;;;;;;;;;;5011382;28;20431;-51
2023/07/06 05:23:11;;;;;;;4.00;1.97;;;;;;;;;;5011489;28;20470;-51
2023/07/06 05:25:38;;;;;;;3.13;1.80;;;;;;;;;;5011840;28;20511;-50
2023/07/06 05:28:05;;;;;;;4.10;2.43;;;;;;;;;;5051731;23;20541;-88
2023/07/06 05:30:33;;;;;;;3.20;2.27;;;;;;;;;;5032858;28;20544;-89
2023/07/06 05:33:02;;;;;;;3.37;1.80;;;;;;;;;;5050424;23;20498;-51
2023/07/06 05:35:29;;;;;;;4.77;2.23;;;;;;;;;;5031689;28;20451;-50
2023/07/06 05:37:56;;;;;;;3.10;2.17;;;;;;;;;;5016761;28;20498;-50
2023/07/06 05:40:23;;;;;;;3.87;2.10;;;;;;;;;;5011843;28;20526;-50
2023/07/06 05:42:51;;;;;;;3.50;2.17;;;;;;;;;;5011596;28;20478;-50
2023/07/06 05:45:18;;;;;;;3.70;2.30;;;;;;;;;;5011403;28;20893;-51
2023/07/06 05:47:45;;;;;;;2.60;1.60;;;;;;;;;;5010769;28;20502;-50
2023/07/06 05:50:14;;;;;;;3.10;1.87;;;;;;;;;;5010925;28;20953;-51
2023/07/06 05:52:41;;;;;;;3.63;2.13;;;;;;;;;;5011080;28;20475;-50
2023/07/06 05:55:09;;;;;;;3.67;2.47;;;;;;;;;;5011337;28;20821;-50
2023/07/06 05:57:37;;;;;;;3.60;1.97;;;;;;;;;;5010369;28;20467;-51
2023/07/06 06:00:09;;;;;;;4.60;2.00;;;;;;;;;;5010302;28;20530;-51
2023/07/06 06:02:36;;;;;;;2.90;2.00;;;;;;;;;;5010360;28;20450;-50
2023/07/06 06:05:04;;;;;;;3.30;1.97;;;;;;;;;;5011573;28;21014;-50
2023/07/06 06:07:33;;;;;;;3.90;1.90;;;;;;;;;;5011308;28;20871;-50
2023/07/06 06:10:03;;;;;;;2.67;1.70;;;;;;;;;;5011464;28;20483;-50
2023/07/06 06:12:31;;;;;;;3.30;2.20;;;;;;;;;;5009722;28;20481;-50
2023/07/06 06:15:00;;;;;;;4.03;2.37;;;;;;;;;;5010101;28;20451;-50
2023/07/06 06:17:28;;;;;;;4.03;2.60;;;;;;;;;;5010500;28;20473;-50
2023/07/06 06:19:55;;;;;;;3.40;1.97;;;;;;;;;;5010497;28;20447;-50
2023/07/06 06:22:23;;;;;;;3.37;2.00;;;;;;;;;;5010558;28;20448;-51
2023/07/06 06:24:51;;;;;;;4.10;1.80;;;;;;;;;;5010965;28;20451;-51
2023/07/06 06:27:20;;;;;;;3.70;2.10;;;;;;;;;;5014435;28;20466;-50
2023/07/06 06:29:47;;;;;;;4.17;2.03;;;;;;;;;;5014957;28;20479;-50
2023/07/06 06:32:15;;;;;;;3.67;2.10;;;;;;;;;;5014819;28;20546;-50
2023/07/06 06:34:44;;;;;;;2.70;1.87;;;;;;;;;;5015270;28;20542;-50
2023/07/06 06:37:12;;;;;;;3.70;1.60;;;;;;;;;;5015331;28;20467;-50
2023/07/06 06:39:39;;;;;;;3.03;1.80;;;;;;;;;;5015116;28;20439;-51
2023/07/06 06:42:08;;;;;;;3.27;1.87;;;;;;;;;;5015165;28;20538;-50
2023/07/06 06:44:36;;;;;;;3.57;2.10;;;;;;;;;;5014758;28;20969;-51
2023/07/06 06:47:04;;;;;;;2.23;1.50;;;;;;;;;;5014670;28;20478;-51
2023/07/06 06:49:33;;;;;;;3.90;2.07;;;;;;;;;;5015176;28;20833;-50
2023/07/06 06:52:02;;;;;;;3.43;1.77;;;;;;;;;;5014733;28;20447;-50
2023/07/06 06:54:30;;;;;;;2.80;1.50;;;;;;;;;;5014527;28;20446;-51
2023/07/06 06:56:57;;;;;;;2.40;1.80;;;;;;;;;;5014999;28;20471;-50
2023/07/06 06:59:27;;;;;;;3.27;1.90;;;;;;;;;;5014968;28;20442;-50
2023/07/06 07:01:54;;;;;;;2.90;1.87;;;;;;;;;;5014822;28;20443;-50
2023/07/06 07:04:22;;;;;;;3.70;2.20;;;;;;;;;;5015196;28;20458;-51
2023/07/06 07:06:49;;;;;;;4.23;1.70;;;;;;;;;;5013917;28;20549;-51
2023/07/06 07:09:17;;;;;;;2.77;1.80;;;;;;;;;;5014803;28;20533;-50
2023/07/06 07:11:45;;;;;;;3.17;1.80;;;;;;;;;;5013822;28;20978;-51
2023/07/06 07:14:13;;;;;;;3.30;1.90;;;;;;;;;;5013025;28;20989;-51
2023/07/06 07:16:42;;;;;;;3.50;2.13;;;;;;;;;;5009238;28;20561;-50
2023/07/06 07:19:09;;;;;;;3.20;2.20;;;;;;;;;;5007858;28;20535;-51
2023/07/06 07:21:36;;;;;;;5.20;3.50;;;;;;;;;;5009268;28;20947;-51
2023/07/06 07:24:04;;;;;;;3.37;2.50;;;;;;;;;;5008730;28;20450;-50
2023/07/06 07:26:31;;;;;;;4.07;2.60;;;;;;;;;;5010187;28;20498;-51
2023/07/06 07:28:58;;;;;;;5.37;2.63;;;;;;;;;;5013353;28;20547;-50
2023/07/06 07:31:26;;;;;;;3.97;2.40;;;;;;;;;;5009086;28;20586;-50
2023/07/06 07:33:55;;;;;;;4.07;2.23;;;;;;;;;;5009706;28;20562;-51
2023/07/06 07:36:23;;;;;;;4.33;1.90;;;;;;;;;;5013399;28;20468;-50
2023/07/06 07:38:50;;;;;;;3.07;2.00;;;;;;;;;;5010710;28;20549;-50
2023/07/06 07:41:19;;;;;;;4.30;2.40;;;;;;;;;;5013233;28;20574;-50
2023/07/06 07:43:47;;;;;;;3.87;2.13;;;;;;;;;;5013631;28;20446;-50
2023/07/06 07:46:16;;;;;;;3.40;2.07;;;;;;;;;;5008761;28;20962;-50
2023/07/06 07:48:45;;;;;;;4.33;1.97;;;;;;;;;;5013250;28;20448;-51
2023/07/06 07:51:15;;;;;;;2.70;1.50;;;;;;;;;;5005217;28;20572;-51
2023/07/06 07:53:44;;;;;;;4.23;2.30;;;;;;;;;;5006231;28;20999;-50
2023/07/06 07:56:11;;;;;;;4.20;2.03;;;;;;;;;;5006088;28;20468;-50
2023/07/06 07:58:40;;;;;;;3.60;2.27;;;;;;;;;;5003340;28;20476;-51
2023/07/06 08:01:08;;;;;;;4.43;2.40;;;;;;;;;;5005480;28;20443;-51
2023/07/06 08:03:36;;;;;;;5.23;2.73;;;;;;;;;;5011986;28;20785;-49
2023/07/06 08:06:05;;;;;;;3.03;1.90;;;;;;;;;;5009650;28;20435;-50
2023/07/06 08:08:35;;;;;;;4.13;2.40;;;;;;;;;;5013273;28;20467;-51
2023/07/06 08:11:03;;;;;;;3.00;1.77;;;;;;;;;;5013430;28;20467;-51
2023/07/06 08:13:31;;;;;;;9.63;2.60;;;;;;;;;;5012992;28;20696;-51
2023/07/06 08:15:59;;;;;;;4.93;2.07;;;;;;;;;;5011468;28;20510;-51
2023/07/06 08:18:26;;;;;;;3.80;1.83;;;;;;;;;;5013014;28;20542;-51
2023/07/06 08:20:54;;;;;;;3.90;1.80;;;;;;;;;;5012298;28;20884;-51
2023/07/06 08:23:22;;;;;;;2.80;2.50;;;;;;;;;;5012854;28;20810;-51
2023/07/06 08:25:52;;;;;;;3.20;1.87;;;;;;;;;;5012250;28;20487;-51
2023/07/06 08:28:21;;;;;;;2.73;2.13;;;;;;;;;;5011811;28;20456;-52
2023/07/06 08:30:49;;;;;;;3.30;1.97;;;;;;;;;;5012849;28;20475;-51
2023/07/06 08:33:17;;;;;;;3.50;2.00;;;;;;;;;;5012484;28;20458;-50
2023/07/06 08:35:45;;;;;;;3.37;2.47;;;;;;;;;;5011043;28;20546;-51
2023/07/06 08:38:13;;;;;;;3.00;1.73;;;;;;;;;;5012450;28;20495;-51
2023/07/06 08:40:41;;;;;;;3.40;2.13;;;;;;;;;;5010485;28;21002;-51
2023/07/06 08:43:14;;;;;;;3.73;1.97;;;;;;;;;;5011477;28;20467;-51
2023/07/06 08:45:43;;;;;;;3.80;1.67;;;;;;;;;;5009791;28;20514;-51
2023/07/06 08:48:13;;;;;;;2.97;1.93;;;;;;;;;;5012033;28;20506;-51
2023/07/06 08:50:42;;;;;;;3.20;2.07;;;;;;;;;;5012307;28;20475;-52
2023/07/06 08:53:11;;;;;;;3.87;2.10;;;;;;;;;;5012107;28;20447;-50
2023/07/06 08:55:39;;;;;;;3.53;1.57;;;;;;;;;;5008525;28;20880;-51
2023/07/06 08:58:06;;;;;;;3.47;2.07;;;;;;;;;;5012238;28;20522;-51
2023/07/06 09:00:35;;;;;;;4.70;2.27;;;;;;;;;;5012286;28;20471;-50
2023/07/06 09:03:06;;;;;;;3.30;2.20;;;;;;;;;;5011972;28;20444;-51
2023/07/06 09:05:35;;;;;;;2.70;1.90;;;;;;;;;;5012172;28;20506;-51
2023/07/06 09:08:03;;;;;;;2.87;2.00;;;;;;;;;;5010924;28;20514;-50
2023/07/06 09:10:30;;;;;;;3.60;1.73;;;;;;;;;;5009294;28;20479;-51
2023/07/06 09:13:11;;;;;;;2.73;1.97;;;;;;;;;;5011979;28;20444;-51
2023/07/06 09:15:40;;;;;;;3.20;1.90;;;;;;;;;;5012275;28;20483;-51
2023/07/06 09:18:07;;;;;;;2.90;1.60;;;;;;;;;;5012168;28;20551;-52
2023/07/06 09:20:35;;;;;;;5.53;1.93;;;;;;;;;;5009654;28;20506;-52
2023/07/06 09:23:05;;;;;;;2.90;1.70;;;;;;;;;;5007527;28;20464;-51
2023/07/06 09:25:36;;;;;;;2.87;1.80;;;;;;;;;;5008517;28;20470;-51
2023/07/06 09:28:07;;;;;;;4.70;2.67;;;;;;;;;;5011517;28;20482;-51
2023/07/06 09:30:36;;;;;;;3.53;2.13;;;;;;;;;;5011970;28;20890;-51
2023/07/06 09:33:16;;;;;;;3.40;2.20;;;;;;;;;;5009685;28;20530;-50
2023/07/06 09:35:44;;;;;;;4.63;2.60;;;;;;;;;;5007244;28;21049;-50
2023/07/06 09:38:13;;;;;;;3.30;1.70;;;;;;;;;;5003466;28;20538;-52
2023/07/06 09:40:43;;;;;;;3.37;1.80;;;;;;;;;;5002809;28;20518;-50
2023/07/06 09:43:20;;;;;;;2.90;1.70;;;;;;;;;;5001522;28;20461;-51
2023/07/06 09:45:49;;;;;;;2.80;1.70;;;;;;;;;;5003186;28;20818;-52
2023/07/06 09:48:27;;;;;;;3.10;1.90;;;;;;;;;;5005217;28;20477;-51
2023/07/06 09:50:56;;;;;;;4.13;2.33;;;;;;;;;;5010462;28;20568;-51
2023/07/06 09:53:26;;;;;;;3.30;1.73;;;;;;;;;;5008856;28;20475;-52
2023/07/06 09:55:54;;;;;;;3.63;2.60;;;;;;;;;;5010647;28;20470;-52
2023/07/06 09:58:22;;;;;;;3.27;2.10;;;;;;;;;;5010763;28;20495;-52
2023/07/06 10:00:53;;;;;;;3.03;1.60;;;;;;;;;;5008672;28;20533;-50
2023/07/06 10:03:28;;;;;;;3.40;1.80;;;;;;;;;;5008487;28;20447;-51
2023/07/06 10:06:00;;;;;;;3.67;2.30;;;;;;;;;;5006851;28;20461;-49
2023/07/06 10:08:30;;;;;;;3.87;1.80;;;;;;;;;;5011518;28;20553;-48
2023/07/06 10:11:05;;;;;;;3.60;2.30;;;;;;;;;;5009241;28;20502;-48
2023/07/06 10:13:38;;;;;;;3.80;1.97;;;;;;;;;;5010994;28;20447;-49
2023/07/06 10:16:11;;;;;;;4.13;2.70;;;;;;;;;;5011469;28;20482;-49
2023/07/06 10:18:43;;;;;;;3.07;1.80;;;;;;;;;;5011612;28;20471;-48
2023/07/06 10:21:13;;;;;;;3.87;2.10;;;;;;;;;;5011427;28;20435;-49
2023/07/06 10:23:44;;;;;;;4.40;2.60;;;;;;;;;;5011459;28;20542;-49
2023/07/06 10:26:14;;;;;;;5.93;2.70;;;;;;;;;;5011080;28;20474;-49
2023/07/06 10:28:43;;;;;;;3.20;1.73;;;;;;;;;;5011113;28;20896;-49
2023/07/06 10:31:16;;;;;;;3.13;2.23;;;;;;;;;;5010850;28;20471;-49
2023/07/06 10:33:48;;;;;;;3.23;2.10;;;;;;;;;;5010680;28;20451;-49
2023/07/06 10:36:16;;;;;;;3.00;1.83;;;;;;;;;;5008393;28;20885;-49
2023/07/06 10:38:44;;;;;;;2.57;1.77;;;;;;;;;;5010896;28;20455;-49
2023/07/06 10:41:22;;;;;;;4.00;2.57;;;;;;;;;;5010772;28;20531;-49
2023/07/06 10:43:51;;;;;;;3.30;2.10;;;;;;;;;;5010409;28;20833;-49
2023/07/06 10:46:30;;;;;;;3.37;2.13;;;;;;;;;;5010876;28;20467;-49
2023/07/06 10:48:59;;;;;;;3.23;2.00;;;;;;;;;;5005735;28;20478;-49
2023/07/06 10:51:28;;;;;;;3.03;1.90;;;;;;;;;;5007667;28;20471;-49
2023/07/06 10:54:16;;;;;;;3.40;2.30;;;;;;;;;;5009945;28;20443;-49
2023/07/06 10:56:45;;;;;;;3.23;2.13;;;;;;;;;;5004473;28;20471;-49
2023/07/06 10:59:18;;;;;;;5.30;2.30;;;;;;;;;;5011041;28;20453;-49
2023/07/06 11:01:46;;;;;;;4.87;2.63;;;;;;;;;;5009876;28;20435;-49
2023/07/06 11:04:31;;;;;;;4.00;2.20;;;;;;;;;;5011107;28;20493;-48
2023/07/06 11:07:00;;;;;;;3.67;2.63;;;;;;;;;;4991384;28;20503;-48
2023/07/06 11:09:28;;;;;;;2.93;1.80;;;;;;;;;;4991306;28;20540;-50
2023/07/06 11:12:06;;;;;;;3.50;2.10;;;;;;;;;;4990571;28;20484;-49
2023/07/06 11:14:39;;;;;;;4.10;2.20;;;;;;;;;;4993630;28;20499;-50
2023/07/06 11:17:13;;;;;;;3.37;1.90;;;;;;;;;;4993353;28;20475;-50
2023/07/06 11:19:44;;;;;;;3.13;1.80;;;;;;;;;;4993495;28;20471;-50
2023/07/06 11:22:18;;;;;;;2.97;2.00;;;;;;;;;;4993062;28;20440;-49
2023/07/06 11:24:48;;;;;;;3.10;1.90;;;;;;;;;;4993508;28;20538;-49
2023/07/06 11:27:24;;;;;;;3.70;2.50;;;;;;;;;;4993313;28;20849;-51
2023/07/06 11:29:54;;;;;;;3.70;2.37;;;;;;;;;;4994381;28;20505;-51
2023/07/06 11:32:25;;;;;;;5.93;2.17;;;;;;;;;;5038306;23;20485;-85
2023/07/06 11:35:04;;;;;;;3.97;2.20;;;;;;;;;;5059987;28;20473;-85
2023/07/06 11:37:40;;;;;;;3.23;1.93;;;;;;;;;;5059847;28;20445;-86
2023/07/06 11:40:15;;;;;;;3.40;1.87;;;;;;;;;;5060287;28;20418;-85
2023/07/06 11:42:50;;;;;;;2.70;1.67;;;;;;;;;;5048923;28;20450;-84
2023/07/06 11:45:23;;;;;;;3.53;1.97;;;;;;;;;;5040371;28;20427;-85
2023/07/06 11:47:58;;;;;;;3.90;2.00;;;;;;;;;;5051676;23;20903;-52
2023/07/06 11:50:28;;;;;;;2.60;1.80;;;;;;;;;;5033690;28;20494;-50
2023/07/06 11:53:09;;;;;;;2.90;1.83;;;;;;;;;;5022052;28;20514;-50
2023/07/06 11:55:50;;;;;;;3.30;2.20;;;;;;;;;;5013964;28;20812;-50
2023/07/06 11:58:31;;;;;;;2.90;2.10;;;;;;;;;;5013499;28;20447;-51
2023/07/06 12:01:01;;;;;;;3.80;2.00;;;;;;;;;;5014148;28;20447;-50
2023/07/06 12:03:29;;;;;;;2.90;1.80;;;;;;;;;;5013404;28;20489;-51
2023/07/06 12:05:58;;;;;;;4.47;2.43;;;;;;;;;;5013389;28;20454;-51
2023/07/06 12:08:35;;;;;;;4.00;2.13;;;;;;;;;;5013592;28;20487;-50
2023/07/06 12:11:05;;;;;;;3.40;2.00;;;;;;;;;;5013285;28;20487;-50
2023/07/06 12:13:34;;;;;;;4.10;2.53;;;;;;;;;;5013167;28;20473;-51
2023/07/06 12:16:07;;;;;;;2.90;2.17;;;;;;;;;;5013371;28;20944;-50
2023/07/06 12:18:36;;;;;;;3.10;2.00;;;;;;;;;;5013452;28;20944;-50
2023/07/06 12:21:03;;;;;;;3.40;2.03;;;;;;;;;;5013427;28;20479;-50
2023/07/06 12:23:32;;;;;;;3.33;2.30;;;;;;;;;;5012196;28;20979;-51
2023/07/06 12:26:00;;;;;;;3.43;2.07;;;;;;;;;;5013267;28;20471;-50
2023/07/06 12:28:29;;;;;;;3.13;1.67;;;;;;;;;;5013246;28;20438;-50
2023/07/06 12:30:58;;;;;;;3.00;1.80;;;;;;;;;;5013397;28;20447;-51
2023/07/06 12:33:28;;;;;;;2.73;1.80;;;;;;;;;;5012757;28;21037;-50
2023/07/06 12:35:56;;;;;;;3.80;2.10;;;;;;;;;;5013402;28;20443;-51
2023/07/06 12:38:23;;;;;;;4.90;2.20;;;;;;;;;;5013572;28;20478;-50
2023/07/06 12:40:52;;;;;;;3.80;2.30;;;;;;;;;;5012986;28;20439;-50
2023/07/06 12:43:26;;;;;;;3.70;1.80;;;;;;;;;;5012633;28;20494;-51
2023/07/06 12:45:53;;;;;;;3.30;2.10;;;;;;;;;;5011654;28;20471;-51
2023/07/06 12:48:23;;;;;;;3.73;2.07;;;;;;;;;;5012676;28;20435;-51
2023/07/06 12:50:52;;;;;;;3.23;1.90;;;;;;;;;;5012766;28;20445;-51
2023/07/06 12:53:23;;;;;;;3.70;2.27;;;;;;;;;;5011796;28;20471;-51
2023/07/06 12:55:52;;;;;;;4.10;2.53;;;;;;;;;;5012871;28;20814;-51
2023/07/06 12:58:26;;;;;;;3.97;2.03;;;;;;;;;;5012159;28;20448;-52
2023/07/06 13:01:01;;;;;;;4.17;2.50;;;;;;;;;;5012748;28;20449;-52
2023/07/06 13:03:28;;;;;;;3.73;2.20;;;;;;;;;;5012328;28;20462;-50
2023/07/06 13:05:56;;;;;;;3.67;2.50;;;;;;;;;;5012617;28;20475;-50
2023/07/06 13:08:24;;;;;;;4.30;2.60;;;;;;;;;;5012587;28;20530;-51
2023/07/06 13:11:02;;;;;;;4.53;2.60;;;;;;;;;;5011942;28;20593;-50
2023/07/06 13:13:33;;;;;;;3.80;2.27;;;;;;;;;;5011997;28;20472;-50
2023/07/06 13:16:02;;;;;;;3.90;2.23;;;;;;;;;;5012281;28;20534;-51
2023/07/06 13:18:29;;;;;;;4.30;2.27;;;;;;;;;;5012669;28;20498;-51
2023/07/06 13:20:57;;;;;;;4.07;2.30;;;;;;;;;;5012526;28;20443;-51
2023/07/06 13:23:24;;;;;;;3.63;2.40;;;;;;;;;;5011800;28;20494;-51
2023/07/06 13:25:53;;;;;;;3.00;2.10;;;;;;;;;;5012217;28;20447;-50
2023/07/06 13:28:22;;;;;;;4.10;1.73;;;;;;;;;;5012048;28;20494;-52
2023/07/06 13:30:49;;;;;;;3.33;2.30;;;;;;;;;;5012034;28;20470;-50
2023/07/06 13:33:18;;;;;;;3.40;2.20;;;;;;;;;;5011796;28;20574;-51
2023/07/06 13:35:46;;;;;;;3.37;2.03;;;;;;;;;;5010386;28;20802;-50
2023/07/06 13:38:14;;;;;;;3.70;2.10;;;;;;;;;;5011846;28;20451;-50
2023/07/06 13:40:42;;;;;;;3.20;2.20;;;;;;;;;;5012087;28;20440;-50
2023/07/06 13:43:13;;;;;;;3.33;2.10;;;;;;;;;;5011000;28;21026;-51
2023/07/06 13:45:42;;;;;;;3.00;2.13;;;;;;;;;;5011874;28;20483;-52
2023/07/06 13:48:11;;;;;;;3.30;2.40;;;;;;;;;;5011813;28;20547;-51
2023/07/06 13:50:39;;;;;;;3.43;2.13;;;;;;;;;;5011564;28;20444;-50
2023/07/06 13:53:07;;;;;;;3.67;2.17;;;;;;;;;;5010888;28;20479;-52
2023/07/06 13:55:37;;;;;;;4.63;2.47;;;;;;;;;;5011697;28;20451;-50
2023/07/06 13:58:06;;;;;;;3.90;2.47;;;;;;;;;;5011942;28;20444;-50
2023/07/06 14:00:33;;;;;;;4.40;2.83;;;;;;;;;;5011859;28;20894;-51
2023/07/06 14:03:02;;;;;;;3.80;2.10;;;;;;;;;;5011375;28;20467;-51
2023/07/06 14:05:30;;;;;;;5.23;2.57;;;;;;;;;;5011330;28;20984;-50
2023/07/06 14:07:57;;;;;;;4.53;2.43;;;;;;;;;;5011850;28;20444;-50
2023/07/06 14:10:26;;;;;;;4.67;2.77;;;;;;;;;;5011128;28;20490;-52
2023/07/06 14:12:53;;;;;;;3.60;2.40;;;;;;;;;;5011022;28;20874;-51
2023/07/06 14:15:21;;;;;;;3.40;2.17;;;;;;;;;;5011448;28;20531;-52
2023/07/06 14:17:48;;;;;;;4.90;2.47;;;;;;;;;;5011323;28;20955;-52
2023/07/06 14:20:18;;;;;;;4.37;1.70;;;;;;;;;;5011597;28;20534;-50
2023/07/06 14:22:46;;;;;;;3.73;2.53;;;;;;;;;;5011207;28;20543;-51
2023/07/06 14:25:17;;;;;;;3.63;2.20;;;;;;;;;;5011384;28;20447;-51
2023/07/06 14:27:44;;;;;;;5.53;3.07;;;;;;;;;;5010925;28;20439;-51
2023/07/06 14:30:13;;;;;;;4.57;2.40;;;;;;;;;;5011144;28;21011;-51
2023/07/06 14:32:40;;;;;;;3.60;2.20;;;;;;;;;;5020336;28;20489;-51
2023/07/06 14:35:10;;;;;;;4.40;2.97;;;;;;;;;;5031113;28;20525;-49
2023/07/06 14:37:39;;;;;;;4.37;2.60;;;;;;;;;;5031065;28;20474;-52
2023/07/06 14:40:07;;;;;;;4.67;3.07;;;;;;;;;;5030723;28;20496;-50
2023/07/06 14:42:35;;;;;;;4.33;2.57;;;;;;;;;;5030729;28;20470;-50
2023/07/06 14:45:02;;;;;;;5.97;2.87;;;;;;;;;;5030779;28;20509;-51
2023/07/06 14:47:30;;;;;;;4.30;3.17;;;;;;;;;;5032537;28;20454;-51
2023/07/06 14:49:58;;;;;;;4.20;2.67;;;;;;;;;;5034927;28;20533;-50
2023/07/06 14:52:25;;;;;;;4.13;2.53;;;;;;;;;;5034313;28;20490;-50
2023/07/06 14:54:54;;;;;;;5.83;2.80;;;;;;;;;;5034379;28;20532;-51
2023/07/06 14:57:21;;;;;;;4.47;2.50;;;;;;;;;;5034342;28;20529;-50